Time;durP1;ratioP1;P1;durP2;ratioP2;P2;SDS_P1;SDS_P2;PMS_P1;PMS_P2;Temp;Humidity;BMP_temperature;BMP_pressure;BME280_temperature;BME280_humidity;BME280_pressure;Samples;Min_cycle;Max_cycle;Signal;HPM_P1;HPM_P2
2021/11/14 00:01:03;;;;;;;477.07;451.30;;;20.60;79.60;;;;;;5072785;28;20199;-70
2021/11/14 00:03:31;;;;;;;485.90;459.60;;;20.90;78.50;;;;;;5071946;28;20187;-71
2021/11/14 00:05:59;;;;;;;493.57;466.63;;;21.00;78.50;;;;;;5072495;28;20198;-71
2021/11/14 00:08:27;;;;;;;505.87;478.33;;;20.70;78.30;;;;;;5072111;28;20222;-74
2021/11/14 00:11:00;;;;;;;519.03;490.23;;;20.40;79.20;;;;;;5072683;28;20221;-72
2021/11/14 00:13:28;;;;;;;446.80;423.07;;;20.70;79.50;;;;;;5061783;28;20218;-74
2021/11/14 00:15:55;;;;;;;528.87;499.00;;;20.50;79.50;;;;;;5070558;28;20626;-75
2021/11/14 00:18:23;;;;;;;474.93;448.97;;;20.30;79.10;;;;;;5071775;28;20168;-71
2021/11/14 00:20:51;;;;;;;443.30;419.43;;;20.10;79.90;;;;;;5071612;28;20183;-73
2021/11/14 00:23:18;;;;;;;429.90;407.00;;;20.40;79.80;;;;;;5072136;28;20183;-72
2021/11/14 00:25:46;;;;;;;519.50;490.67;;;20.60;77.60;;;;;;5072174;28;20171;-74
2021/11/14 00:28:14;;;;;;;383.90;363.47;;;21.00;77.30;;;;;;5072178;28;20207;-73
2021/11/14 00:30:41;;;;;;;314.27;297.07;;;21.20;77.10;;;;;;5068135;28;20183;-74
2021/11/14 00:33:11;;;;;;;313.13;295.97;;;21.40;77.50;;;;;;5070101;28;20274;-72
2021/11/14 00:35:39;;;;;;;322.10;304.73;;;21.00;76.10;;;;;;5071902;28;20171;-73
2021/11/14 00:38:07;;;;;;;348.27;329.30;;;20.70;76.10;;;;;;5071128;28;20183;-73
2021/11/14 00:40:37;;;;;;;423.57;400.93;;;21.10;76.70;;;;;;5070932;28;20224;-70
2021/11/14 00:43:05;;;;;;;457.17;432.60;;;21.40;76.60;;;;;;5071027;28;20279;-73
2021/11/14 00:45:35;;;;;;;305.13;288.80;;;21.80;76.90;;;;;;5066492;28;20720;-71
2021/11/14 00:48:04;;;;;;;352.07;333.20;;;21.20;74.80;;;;;;5067383;28;20207;-71
2021/11/14 00:50:33;;;;;;;438.27;414.77;;;21.50;74.30;;;;;;5072002;28;20210;-73
2021/11/14 00:53:01;;;;;;;409.17;387.23;;;21.70;73.70;;;;;;5072755;28;20179;-70
2021/11/14 00:55:32;;;;;;;384.13;363.20;;;22.00;74.50;;;;;;5072189;28;20179;-72
2021/11/14 00:57:59;;;;;;;366.57;346.53;;;22.00;72.90;;;;;;5071994;28;20692;-71
2021/11/14 01:00:28;;;;;;;303.93;287.37;;;22.00;71.80;;;;;;5071582;28;20696;-69
2021/11/14 01:02:56;;;;;;;297.47;281.07;;;21.90;72.90;;;;;;5070606;28;20233;-72
2021/11/14 01:05:25;;;;;;;338.40;319.53;;;22.20;72.50;;;;;;5070326;28;21664;-73
2021/11/14 01:07:53;;;;;;;408.67;386.20;;;22.40;71.40;;;;;;5071400;28;20260;-70
2021/11/14 01:10:25;;;;;;;392.90;371.70;;;22.70;72.10;;;;;;5072372;28;20190;-70
2021/11/14 01:12:53;;;;;;;449.10;424.17;;;22.60;71.50;;;;;;5062437;28;20223;-70
2021/11/14 01:15:21;;;;;;;417.53;394.40;;;22.70;71.40;;;;;;5069905;28;20290;-72
2021/11/14 01:17:49;;;;;;;401.07;378.70;;;22.90;71.10;;;;;;5069215;28;20209;-72
2021/11/14 01:20:20;;;;;;;354.70;334.83;;;22.30;70.50;;;;;;5069158;28;20680;-71
2021/11/14 01:22:48;;;;;;;301.97;285.27;;;22.30;70.70;;;;;;5071453;28;20186;-71
2021/11/14 01:25:16;;;;;;;351.53;331.57;;;22.60;70.80;;;;;;5067758;28;20194;-69
2021/11/14 01:27:45;;;;;;;313.27;295.73;;;22.60;70.30;;;;;;5070690;28;20657;-71
2021/11/14 01:30:22;;;;;;;444.60;419.80;;;22.80;70.40;;;;;;5068946;28;20195;-70
2021/11/14 01:32:51;;;;;;;428.73;404.97;;;22.70;69.50;;;;;;5070134;28;20645;-71
2021/11/14 01:35:19;;;;;;;411.10;388.13;;;21.90;70.10;;;;;;5064593;28;20208;-72
2021/11/14 01:37:48;;;;;;;453.97;428.70;;;22.20;70.10;;;;;;5073800;28;20218;-70
2021/11/14 01:40:24;;;;;;;408.00;385.50;;;21.70;70.70;;;;;;5071224;28;20179;-70
2021/11/14 01:42:52;;;;;;;467.33;441.70;;;21.90;70.60;;;;;;5065820;28;20262;-71
2021/11/14 01:45:20;;;;;;;398.43;376.67;;;22.00;70.20;;;;;;5071643;28;20179;-76
2021/11/14 01:47:48;;;;;;;323.73;305.60;;;22.50;69.60;;;;;;5070255;28;20198;-72
2021/11/14 01:50:19;;;;;;;349.13;329.60;;;22.80;69.50;;;;;;5064715;28;20475;-73
2021/11/14 01:52:48;;;;;;;346.50;327.03;;;23.10;68.80;;;;;;5073998;28;20590;-71
2021/11/14 01:55:22;;;;;;;353.13;333.27;;;23.20;68.00;;;;;;5071391;28;20186;-73
2021/11/14 01:57:50;;;;;;;300.97;284.10;;;23.10;68.40;;;;;;5067775;28;20195;-71
2021/11/14 02:00:46;;;;;;;320.33;302.53;;;22.90;68.20;;;;;;5070145;28;20660;-71
2021/11/14 02:03:17;;;;;;;372.40;352.00;;;22.20;69.80;;;;;;5065455;28;20303;-71
2021/11/14 02:05:45;;;;;;;391.67;369.90;;;21.60;70.00;;;;;;5068970;28;20305;-71
2021/11/14 02:08:12;;;;;;;447.63;422.60;;;22.20;69.60;;;;;;5071099;28;20211;-72
2021/11/14 02:10:43;;;;;;;495.73;467.60;;;23.00;69.80;;;;;;5069360;28;20201;-71
2021/11/14 02:13:11;;;;;;;489.20;461.77;;;23.00;68.60;;;;;;5070258;28;20752;-74
2021/11/14 02:15:39;;;;;;;526.13;496.03;;;22.60;68.90;;;;;;5075051;28;20417;-70
2021/11/14 02:18:09;;;;;;;471.10;444.50;;;22.90;69.70;;;;;;5073406;28;20579;-71
2021/11/14 02:20:36;;;;;;;503.50;475.17;;;22.90;70.20;;;;;;5074830;28;20214;-71
2021/11/14 02:23:06;;;;;;;564.57;532.40;;;22.50;68.90;;;;;;5074673;28;20270;-74
2021/11/14 02:25:34;;;;;;;414.97;391.50;;;22.20;69.40;;;;;;5073058;28;20183;-75
2021/11/14 02:28:02;;;;;;;353.67;333.90;;;22.10;69.20;;;;;;5071664;28;20658;-70
2021/11/14 02:30:29;;;;;;;367.07;346.20;;;22.20;69.10;;;;;;5075728;28;20187;-71
2021/11/14 02:32:58;;;;;;;440.53;416.23;;;22.70;68.60;;;;;;5081871;28;20175;-71
2021/11/14 02:35:26;;;;;;;559.60;527.70;;;23.10;68.30;;;;;;5073561;28;20183;-70
2021/11/14 02:37:54;;;;;;;386.10;364.27;;;22.80;68.60;;;;;;5075758;28;20190;-70
2021/11/14 02:40:22;;;;;;;532.20;502.10;;;22.50;67.80;;;;;;5068496;28;20244;-74
2021/11/14 02:42:50;;;;;;;579.63;546.23;;;22.50;68.90;;;;;;5078525;28;20201;-70
2021/11/14 02:45:22;;;;;;;528.60;498.47;;;22.50;69.20;;;;;;5073064;28;20513;-69
2021/11/14 02:47:51;;;;;;;647.60;608.73;;;22.50;68.90;;;;;;5073028;28;20256;-72
2021/11/14 02:50:21;;;;;;;300.67;284.17;;;22.70;69.10;;;;;;5070922;28;20305;-72
2021/11/14 02:52:48;;;;;;;369.40;348.93;;;23.10;68.50;;;;;;5068320;28;20253;-73
2021/11/14 02:55:20;;;;;;;281.87;266.03;;;23.30;67.20;;;;;;5075101;28;20189;-70
2021/11/14 02:57:47;;;;;;;341.90;322.33;;;24.30;66.90;;;;;;5074472;28;20175;-75
2021/11/14 03:00:22;;;;;;;427.57;403.30;;;23.30;66.70;;;;;;5073521;28;20172;-74
2021/11/14 03:02:51;;;;;;;294.40;278.00;;;23.00;67.50;;;;;;5072732;28;20621;-74
2021/11/14 03:05:20;;;;;;;336.77;318.07;;;22.60;68.30;;;;;;5073559;28;20183;-72
2021/11/14 03:07:49;;;;;;;413.63;390.70;;;22.40;69.10;;;;;;5067994;28;20676;-71
2021/11/14 03:10:21;;;;;;;481.37;454.83;;;22.60;68.40;;;;;;5074624;28;20214;-71
2021/11/14 03:12:58;;;;;;;525.33;493.70;;;22.60;68.80;;;;;;5071856;28;20420;-71
2021/11/14 03:15:26;;;;;;;584.93;550.60;;;22.20;68.90;;;;;;5074159;28;20175;-71
2021/11/14 03:17:54;;;;;;;636.57;598.60;;;22.30;69.00;;;;;;5073517;28;20194;-71
2021/11/14 03:20:21;;;;;;;707.87;664.70;;;22.30;69.10;;;;;;5073208;28;20259;-73
2021/11/14 03:22:49;;;;;;;723.70;678.57;;;22.50;68.70;;;;;;5073987;28;20179;-68
2021/11/14 03:25:25;;;;;;;726.67;681.67;;;22.90;69.20;;;;;;5073152;28;20638;-71
2021/11/14 03:27:54;;;;;;;687.43;645.30;;;23.90;67.90;;;;;;5072119;28;20281;-75
2021/11/14 03:30:22;;;;;;;555.47;523.30;;;24.30;67.10;;;;;;5072995;28;20641;-74
2021/11/14 03:32:50;;;;;;;668.13;627.50;;;23.80;67.60;;;;;;5072876;28;20262;-72
2021/11/14 03:35:19;;;;;;;795.60;745.33;;;22.90;68.00;;;;;;5073683;28;20247;-71
2021/11/14 03:37:46;;;;;;;706.10;662.47;;;23.00;68.90;;;;;;5066043;28;20179;-71
2021/11/14 03:40:16;;;;;;;719.80;675.10;;;23.20;69.00;;;;;;5074113;28;20641;-70
2021/11/14 03:42:44;;;;;;;780.20;731.23;;;23.90;68.40;;;;;;5074139;28;20519;-72
2021/11/14 03:45:11;;;;;;;798.93;748.93;;;24.40;67.30;;;;;;5074001;28;20187;-70
2021/11/14 03:47:40;;;;;;;772.77;724.47;;;24.40;65.70;;;;;;5065318;28;20218;-71
2021/11/14 03:50:09;;;;;;;812.83;761.73;;;24.10;65.60;;;;;;5053572;28;20309;-70
2021/11/14 03:52:37;;;;;;;834.77;781.70;;;24.60;67.00;;;;;;5066249;28;20206;-72
2021/11/14 03:55:05;;;;;;;794.70;744.90;;;24.90;65.50;;;;;;5072682;28;20179;-71
2021/11/14 03:57:33;;;;;;;743.40;696.73;;;24.80;65.50;;;;;;5072724;28;20179;-73
2021/11/14 04:00:00;;;;;;;422.47;397.77;;;24.70;65.10;;;;;;5072173;28;20187;-70
2021/11/14 04:02:29;;;;;;;664.80;624.20;;;24.70;64.70;;;;;;5072767;28;20182;-71
2021/11/14 04:04:57;;;;;;;632.07;592.83;;;24.10;64.80;;;;;;5072530;28;20630;-71
2021/11/14 04:07:24;;;;;;;631.97;593.27;;;24.00;65.30;;;;;;5073293;28;20187;-76
2021/11/14 04:09:52;;;;;;;499.77;470.17;;;24.30;65.60;;;;;;5071909;28;20672;-74
2021/11/14 04:12:19;;;;;;;493.13;464.57;;;24.30;65.70;;;;;;5072210;28;20219;-71
2021/11/14 04:14:46;;;;;;;575.23;541.20;;;23.80;65.70;;;;;;5072061;28;20642;-71
2021/11/14 04:17:14;;;;;;;454.33;428.23;;;24.80;65.50;;;;;;5072280;28;20653;-74
2021/11/14 04:19:42;;;;;;;249.63;235.17;;;25.30;63.90;;;;;;5072739;28;20276;-73
2021/11/14 04:22:09;;;;;;;157.70;148.73;;;25.00;64.30;;;;;;5072926;28;20167;-73
2021/11/14 04:24:36;;;;;;;202.60;191.03;;;25.50;64.10;;;;;;5072678;28;20183;-73
2021/11/14 04:27:04;;;;;;;18.47;17.27;;;25.50;64.60;;;;;;5071994;28;20175;-74
2021/11/14 04:29:31;;;;;;;11.73;11.03;;;25.00;65.00;;;;;;5072716;28;20258;-69
2021/11/14 04:31:59;;;;;;;94.20;89.10;;;23.80;65.70;;;;;;5072364;28;20689;-72
2021/11/14 04:34:26;;;;;;;165.23;155.93;;;22.90;67.30;;;;;;5072630;28;20183;-69
2021/11/14 04:36:53;;;;;;;124.93;118.03;;;22.90;67.40;;;;;;5071962;28;20187;-71
2021/11/14 04:39:21;;;;;;;122.23;115.63;;;22.80;66.90;;;;;;5072177;28;20270;-70
2021/11/14 04:41:48;;;;;;;157.13;148.23;;;22.80;67.60;;;;;;5052627;28;20175;-70
2021/11/14 04:44:15;;;;;;;92.97;87.93;;;22.80;68.20;;;;;;5072375;28;20175;-70
2021/11/14 04:46:43;;;;;;;244.37;230.60;;;22.40;67.70;;;;;;5072125;28;20194;-71
2021/11/14 04:49:10;;;;;;;236.13;222.90;;;22.20;68.90;;;;;;5053696;28;20216;-69
2021/11/14 04:51:38;;;;;;;207.13;195.73;;;21.90;68.80;;;;;;5072430;28;20175;-70
2021/11/14 04:54:06;;;;;;;376.77;356.13;;;21.90;69.90;;;;;;5072260;28;20179;-69
2021/11/14 04:56:33;;;;;;;415.73;392.93;;;21.90;68.80;;;;;;5071031;28;20544;-71
2021/11/14 04:59:01;;;;;;;397.03;374.97;;;21.80;69.50;;;;;;5067611;28;20220;-69
2021/11/14 05:01:28;;;;;;;430.93;407.13;;;21.80;69.50;;;;;;5072558;28;20167;-71
2021/11/14 05:03:55;;;;;;;372.30;351.67;;;21.90;70.30;;;;;;5071747;28;20713;-70
2021/11/14 05:06:23;;;;;;;340.53;321.37;;;22.10;68.90;;;;;;5071729;28;20254;-70
2021/11/14 05:08:50;;;;;;;342.00;322.73;;;21.90;68.00;;;;;;5071869;28;20207;-68
2021/11/14 05:11:17;;;;;;;333.00;314.63;;;21.80;68.90;;;;;;5072138;28;20214;-69
2021/11/14 05:13:45;;;;;;;357.67;338.23;;;21.60;70.50;;;;;;5071644;28;20732;-74
2021/11/14 05:16:12;;;;;;;428.00;404.87;;;21.30;71.30;;;;;;5069800;28;20179;-72
2021/11/14 05:18:40;;;;;;;414.73;392.37;;;21.20;72.20;;;;;;5072195;28;20175;-75
2021/11/14 05:21:09;;;;;;;287.70;271.93;;;21.20;72.30;;;;;;5072090;28;20179;-69
2021/11/14 05:23:37;;;;;;;360.03;340.57;;;21.20;74.70;;;;;;5072176;28;20186;-72
2021/11/14 05:26:05;;;;;;;226.87;214.00;;;21.50;74.90;;;;;;5071031;28;20255;-73
2021/11/14 05:28:33;;;;;;;312.73;295.37;;;22.60;72.70;;;;;;5070601;28;20214;-73
2021/11/14 05:31:00;;;;;;;341.37;321.47;;;23.30;70.90;;;;;;5071498;28;20321;-71
2021/11/14 05:33:28;;;;;;;193.60;183.07;;;22.60;71.00;;;;;;5070952;28;20181;-74
2021/11/14 05:35:55;;;;;;;38.13;36.03;;;23.00;71.40;;;;;;5068570;28;20179;-75
2021/11/14 05:38:23;;;;;;;44.73;42.13;;;23.70;70.20;;;;;;5065118;28;20203;-73
2021/11/14 05:40:50;;;;;;;201.97;190.73;;;23.20;69.90;;;;;;5070537;28;20187;-72
2021/11/14 05:43:17;;;;;;;225.77;213.07;;;22.70;71.10;;;;;;5060364;28;20180;-76
2021/11/14 05:45:45;;;;;;;205.13;193.53;;;22.20;72.60;;;;;;5066663;28;20219;-75
2021/11/14 05:48:13;;;;;;;137.07;129.37;;;22.80;72.60;;;;;;5058468;28;20573;-73
2021/11/14 05:50:40;;;;;;;164.03;154.73;;;23.80;71.50;;;;;;5054958;28;20168;-72
2021/11/14 05:53:09;;;;;;;15.60;14.70;;;24.70;70.10;;;;;;5064594;28;20179;-74
2021/11/14 05:55:37;;;;;;;45.57;42.97;;;25.30;68.80;;;;;;5056090;28;20272;-76
2021/11/14 05:58:14;;;;;;;42.00;39.73;;;25.80;68.70;;;;;;5071817;28;20548;-74
2021/11/14 06:03:37;;;;;;;89.73;84.80;;;26.30;66.00;;;;;;5076058;28;20189;-77
2021/11/14 06:06:07;;;;;;;190.27;179.57;;;25.80;64.70;;;;;;5074002;28;20262;-73
2021/11/14 06:08:35;;;;;;;207.73;195.87;;;24.20;66.70;;;;;;5073496;28;20203;-70
2021/11/14 06:11:03;;;;;;;308.30;290.77;;;22.90;67.60;;;;;;5074186;28;20171;-77
2021/11/14 06:13:34;;;;;;;320.47;302.27;;;22.30;69.30;;;;;;5075003;28;20317;-73
2021/11/14 06:16:02;;;;;;;311.90;294.60;;;21.80;69.60;;;;;;5074207;28;20176;-71
2021/11/14 06:18:30;;;;;;;410.00;387.03;;;21.70;70.50;;;;;;5075425;28;20626;-72
2021/11/14 06:21:00;;;;;;;474.60;448.43;;;21.40;69.90;;;;;;5073462;28;20221;-76
2021/11/14 06:23:28;;;;;;;451.73;426.80;;;21.30;69.60;;;;;;5075464;28;20232;-69
2021/11/14 06:25:55;;;;;;;368.30;348.33;;;21.20;69.80;;;;;;5074885;28;20171;-72
2021/11/14 06:28:22;;;;;;;360.27;340.90;;;21.20;70.80;;;;;;5074382;28;20674;-71
2021/11/14 06:30:50;;;;;;;302.13;285.73;;;21.10;70.70;;;;;;5075288;28;20167;-77
2021/11/14 06:33:17;;;;;;;292.90;277.13;;;21.00;72.10;;;;;;5074888;28;20214;-71
2021/11/14 06:35:45;;;;;;;238.63;225.50;;;20.90;77.00;;;;;;5074247;28;20179;-72
2021/11/14 06:38:12;;;;;;;369.10;349.60;;;20.00;83.10;;;;;;5075280;28;20233;-75
2021/11/14 06:40:40;;;;;;;280.93;266.03;;;18.70;90.80;;;;;;5074271;28;20183;-72
2021/11/14 06:43:07;;;;;;;473.47;447.83;;;17.00;94.30;;;;;;5074293;28;20203;-70
2021/11/14 06:45:34;;;;;;;552.20;517.97;;;15.90;99.30;;;;;;5074980;28;20655;-72
2021/11/14 06:48:02;;;;;;;597.03;554.13;;;15.40;99.90;;;;;;5074583;28;20237;-74
2021/11/14 06:50:29;;;;;;;581.23;539.33;;;15.40;99.90;;;;;;5074345;28;20215;-67
2021/11/14 06:52:56;;;;;;;596.00;543.37;;;15.40;99.90;;;;;;5074919;28;20175;-70
2021/11/14 06:55:24;;;;;;;617.30;563.43;;;15.50;99.90;;;;;;5074543;28;20660;-73
2021/11/14 06:57:51;;;;;;;601.33;550.23;;;15.60;99.90;;;;;;5071956;28;20277;-73
2021/11/14 07:00:22;;;;;;;566.20;523.13;;;15.80;99.90;;;;;;5061731;28;20198;-67
2021/11/14 07:02:50;;;;;;;495.27;463.20;;;15.90;99.90;;;;;;5073960;28;20176;-72
2021/11/14 07:05:18;;;;;;;540.90;502.83;;;16.00;99.90;;;;;;5071650;28;20186;-68
2021/11/14 07:07:46;;;;;;;490.10;459.73;;;16.20;99.90;;;;;;5069202;28;20186;-72
2021/11/14 07:10:16;;;;;;;507.47;476.00;;;16.20;99.90;;;;;;5072657;28;20518;-73
2021/11/14 07:12:45;;;;;;;534.07;499.97;;;16.30;99.90;;;;;;5068807;28;20242;-70
2021/11/14 07:15:15;;;;;;;499.43;468.97;;;16.50;99.90;;;;;;5071592;28;20183;-72
2021/11/14 07:17:44;;;;;;;400.50;378.87;;;16.40;99.90;;;;;;5072164;28;20184;-72
2021/11/14 07:20:13;;;;;;;504.97;473.80;;;16.20;99.90;;;;;;5073594;28;20198;-71
2021/11/14 07:22:43;;;;;;;545.97;509.87;;;16.30;99.90;;;;;;5074596;28;20180;-73
2021/11/14 07:25:14;;;;;;;463.70;437.37;;;16.30;99.90;;;;;;5074391;28;20187;-71
2021/11/14 07:27:43;;;;;;;472.27;445.53;;;16.40;99.90;;;;;;5074014;28;20209;-71
2021/11/14 07:30:13;;;;;;;478.50;450.50;;;16.40;99.90;;;;;;5074225;28;20283;-69
2021/11/14 07:32:41;;;;;;;425.80;402.37;;;16.40;99.90;;;;;;5074329;28;20266;-71
2021/11/14 07:35:13;;;;;;;398.07;376.70;;;16.50;99.90;;;;;;5073868;28;20266;-71
2021/11/14 07:37:41;;;;;;;389.77;369.03;;;16.50;99.90;;;;;;5074031;28;20231;-68
2021/11/14 07:40:11;;;;;;;405.90;384.00;;;16.60;99.20;;;;;;5074083;28;20191;-73
2021/11/14 07:42:39;;;;;;;414.40;392.07;;;16.70;99.00;;;;;;5074213;28;20257;-73
2021/11/14 07:45:09;;;;;;;410.17;388.20;;;16.70;99.90;;;;;;5074120;28;20179;-69
2021/11/14 07:47:36;;;;;;;460.50;434.73;;;16.70;98.90;;;;;;5074098;28;20190;-67
2021/11/14 07:50:05;;;;;;;395.63;374.90;;;16.70;99.40;;;;;;5073559;28;20228;-74
2021/11/14 07:52:32;;;;;;;382.60;362.87;;;16.70;99.90;;;;;;5073663;28;20221;-71
2021/11/14 07:55:00;;;;;;;225.57;214.13;;;16.70;98.90;;;;;;5073966;28;20186;-74
2021/11/14 07:57:28;;;;;;;227.47;215.87;;;16.70;99.60;;;;;;5073185;28;20629;-74
2021/11/14 07:59:55;;;;;;;364.13;345.60;;;16.70;99.20;;;;;;5073668;28;20235;-72
2021/11/14 08:02:22;;;;;;;337.03;320.20;;;16.80;99.90;;;;;;5073848;28;20229;-69
2021/11/14 08:04:50;;;;;;;329.00;312.60;;;16.90;99.50;;;;;;5073561;28;20174;-71
2021/11/14 08:07:17;;;;;;;308.03;292.70;;;16.90;99.00;;;;;;5073247;28;20665;-69
2021/11/14 08:09:45;;;;;;;237.70;225.80;;;16.90;99.10;;;;;;5073258;28;20213;-70
2021/11/14 08:12:12;;;;;;;253.73;241.13;;;16.90;98.30;;;;;;5072718;28;20230;-71
2021/11/14 08:14:40;;;;;;;309.33;293.87;;;16.90;98.40;;;;;;5073533;28;20176;-71
2021/11/14 08:17:07;;;;;;;250.83;238.20;;;16.90;97.80;;;;;;5073391;28;20232;-75
2021/11/14 08:19:34;;;;;;;288.53;274.17;;;17.00;97.60;;;;;;5073404;28;20167;-72
2021/11/14 08:22:02;;;;;;;274.40;260.67;;;17.00;98.60;;;;;;5072947;28;20240;-72
2021/11/14 08:24:29;;;;;;;307.13;292.03;;;16.90;98.10;;;;;;5073422;28;20257;-69
2021/11/14 08:26:56;;;;;;;320.13;304.10;;;16.90;97.90;;;;;;5073375;28;20206;-71
2021/11/14 08:29:24;;;;;;;290.13;275.73;;;16.90;97.70;;;;;;5073228;28;20296;-75
2021/11/14 08:31:51;;;;;;;330.47;313.77;;;16.90;98.30;;;;;;5073145;28;20202;-71
2021/11/14 08:34:19;;;;;;;327.60;311.20;;;16.80;98.10;;;;;;5073081;28;20178;-71
2021/11/14 08:36:46;;;;;;;340.33;323.23;;;16.80;97.80;;;;;;5073466;28;20186;-74
2021/11/14 08:39:14;;;;;;;372.47;353.47;;;16.70;98.00;;;;;;5073112;28;20178;-71
2021/11/14 08:41:41;;;;;;;387.23;367.17;;;16.70;98.10;;;;;;5072901;28;20177;-73
2021/11/14 08:44:09;;;;;;;490.10;461.63;;;16.60;98.50;;;;;;5072995;28;20259;-71
2021/11/14 08:46:37;;;;;;;401.90;380.57;;;16.60;97.60;;;;;;5073028;28;20185;-75
2021/11/14 08:49:05;;;;;;;436.70;412.40;;;16.60;96.80;;;;;;5072646;28;20230;-68
2021/11/14 08:51:33;;;;;;;445.80;421.17;;;16.60;96.30;;;;;;5072786;28;20175;-66
2021/11/14 08:54:00;;;;;;;425.03;402.20;;;16.70;96.50;;;;;;5072857;28;20534;-77
2021/11/14 08:56:32;;;;;;;447.27;422.30;;;16.60;96.70;;;;;;5073108;28;20190;-76
2021/11/14 08:59:00;;;;;;;444.60;419.50;;;16.60;96.80;;;;;;5072027;28;20597;-72
2021/11/14 09:01:27;;;;;;;433.80;409.70;;;16.50;96.20;;;;;;5056175;28;20255;-75
2021/11/14 09:03:55;;;;;;;462.87;436.90;;;16.30;95.60;;;;;;5052496;28;20171;-77
2021/11/14 09:06:22;;;;;;;489.97;460.47;;;16.20;95.90;;;;;;5051489;28;20172;-78
2021/11/14 09:08:50;;;;;;;491.73;461.67;;;16.10;95.90;;;;;;5070791;28;20208;-73
2021/11/14 09:11:18;;;;;;;490.07;460.37;;;16.10;95.90;;;;;;5072066;28;20649;-71
2021/11/14 09:13:45;;;;;;;475.07;446.77;;;16.00;95.60;;;;;;5072256;28;20753;-71
2021/11/14 09:16:13;;;;;;;410.83;388.33;;;16.00;95.90;;;;;;5072625;28;20177;-74
2021/11/14 09:18:41;;;;;;;370.37;350.93;;;16.10;95.70;;;;;;5072752;28;20344;-70
2021/11/14 09:21:08;;;;;;;362.07;343.43;;;16.00;96.00;;;;;;5072355;28;20189;-72
2021/11/14 09:23:36;;;;;;;333.60;316.40;;;15.90;96.20;;;;;;5075289;28;20170;-71
2021/11/14 09:26:03;;;;;;;462.50;435.17;;;15.80;96.20;;;;;;5076725;28;20201;-74
2021/11/14 09:28:31;;;;;;;545.50;509.07;;;15.70;96.00;;;;;;5076522;28;20812;-69
2021/11/14 09:30:58;;;;;;;526.47;489.30;;;15.60;96.10;;;;;;5076640;28;20668;-71
2021/11/14 09:33:27;;;;;;;488.83;457.70;;;15.60;96.50;;;;;;5076497;28;20216;-71
2021/11/14 09:35:55;;;;;;;466.90;437.60;;;15.50;96.60;;;;;;5076197;28;20549;-68
2021/11/14 09:38:23;;;;;;;477.13;446.80;;;15.50;97.00;;;;;;5076664;28;20178;-72
2021/11/14 09:40:51;;;;;;;527.20;490.23;;;15.40;97.00;;;;;;5076531;28;20641;-73
2021/11/14 09:43:20;;;;;;;507.57;473.77;;;15.30;97.30;;;;;;5076358;28;20187;-70
2021/11/14 09:45:49;;;;;;;500.67;467.03;;;15.30;97.50;;;;;;5074899;28;20209;-76
2021/11/14 09:48:16;;;;;;;525.33;487.57;;;15.30;97.60;;;;;;5076271;28;20574;-70
2021/11/14 09:50:44;;;;;;;498.73;465.83;;;15.20;97.70;;;;;;5076043;28;20271;-75
2021/11/14 09:53:12;;;;;;;477.63;446.50;;;15.20;98.10;;;;;;5076312;28;20259;-75
2021/11/14 09:55:39;;;;;;;483.10;451.67;;;15.10;98.10;;;;;;5076015;28;20189;-73
2021/11/14 09:58:08;;;;;;;445.17;418.07;;;15.10;98.10;;;;;;5076397;28;20167;-73
2021/11/14 10:00:38;;;;;;;414.80;390.83;;;15.10;98.10;;;;;;5076201;28;20172;-72
2021/11/14 10:03:06;;;;;;;448.57;421.83;;;15.10;98.40;;;;;;5075943;28;20260;-72
2021/11/14 10:05:34;;;;;;;415.33;391.23;;;15.10;98.60;;;;;;5075770;28;20186;-76
2021/11/14 10:08:08;;;;;;;501.03;467.27;;;15.00;98.30;;;;;;5075668;28;20248;-71
2021/11/14 10:10:40;;;;;;;474.10;443.20;;;15.00;98.40;;;;;;5076044;28;20204;-70
2021/11/14 10:13:14;;;;;;;465.87;436.53;;;15.00;98.00;;;;;;5074212;28;20238;-72
2021/11/14 10:15:44;;;;;;;475.37;445.33;;;15.00;97.10;;;;;;5075280;28;20191;-71
2021/11/14 10:18:12;;;;;;;487.23;455.03;;;15.00;97.30;;;;;;5075684;28;20194;-73
2021/11/14 10:20:40;;;;;;;449.70;422.40;;;15.00;97.40;;;;;;5075458;28;20656;-75
2021/11/14 10:23:14;;;;;;;353.00;333.87;;;15.00;97.00;;;;;;5073165;28;20234;-72
2021/11/14 10:25:43;;;;;;;350.40;331.73;;;15.10;97.00;;;;;;5075317;28;20648;-71
2021/11/14 10:28:10;;;;;;;383.97;362.30;;;15.00;97.00;;;;;;5075546;28;20210;-75
2021/11/14 10:30:42;;;;;;;430.00;404.30;;;15.00;97.10;;;;;;5074689;28;20182;-72
2021/11/14 10:33:12;;;;;;;422.30;397.20;;;15.00;97.30;;;;;;5075170;28;20179;-71
2021/11/14 10:35:42;;;;;;;450.03;421.77;;;15.00;97.40;;;;;;5074079;28;20578;-72
2021/11/14 10:38:13;;;;;;;452.57;424.70;;;14.90;97.50;;;;;;5074450;28;20722;-75
2021/11/14 10:40:48;;;;;;;535.03;494.13;;;14.90;97.50;;;;;;5076800;28;20188;-75
2021/11/14 10:43:21;;;;;;;512.77;476.37;;;14.80;97.70;;;;;;5073990;28;20182;-70
2021/11/14 10:45:49;;;;;;;500.17;465.70;;;14.80;98.20;;;;;;5071299;28;20215;-73
2021/11/14 10:48:22;;;;;;;501.47;466.50;;;14.70;98.70;;;;;;5074327;28;20623;-73
2021/11/14 10:50:55;;;;;;;538.77;498.47;;;14.70;98.70;;;;;;5074935;28;20167;-72
2021/11/14 10:53:27;;;;;;;510.30;473.27;;;14.70;99.00;;;;;;5075060;28;20533;-71
2021/11/14 10:55:57;;;;;;;500.47;464.57;;;14.60;99.10;;;;;;5074869;28;20195;-72
2021/11/14 10:58:27;;;;;;;497.60;462.03;;;14.70;99.10;;;;;;5074071;28;20181;-73
2021/11/14 11:00:59;;;;;;;499.20;463.50;;;14.60;98.90;;;;;;5071669;28;20205;-72
2021/11/14 11:03:33;;;;;;;504.90;466.97;;;14.70;99.00;;;;;;5074661;28;20173;-75
2021/11/14 11:06:09;;;;;;;440.63;412.87;;;14.60;98.90;;;;;;5074063;28;20174;-73
2021/11/14 11:08:37;;;;;;;463.23;432.73;;;14.60;99.30;;;;;;5074232;28;20207;-73
2021/11/14 11:11:07;;;;;;;498.27;463.87;;;14.60;99.20;;;;;;5074632;28;20176;-72
2021/11/14 11:13:46;;;;;;;528.40;490.37;;;14.60;99.50;;;;;;5074396;28;20223;-72
2021/11/14 11:16:18;;;;;;;519.50;480.47;;;14.60;99.60;;;;;;5069709;28;20642;-75
2021/11/14 11:18:55;;;;;;;514.50;472.10;;;14.60;99.20;;;;;;5074411;28;20167;-75
2021/11/14 11:21:27;;;;;;;507.97;467.47;;;14.60;99.30;;;;;;5073837;28;20198;-72
2021/11/14 11:24:04;;;;;;;516.63;474.37;;;14.70;98.40;;;;;;5073295;28;20240;-73
2021/11/14 11:26:31;;;;;;;525.07;479.77;;;14.70;97.90;;;;;;5074510;28;20175;-73
2021/11/14 11:28:59;;;;;;;508.80;467.93;;;14.80;97.90;;;;;;5072874;28;20203;-74
2021/11/14 11:31:26;;;;;;;489.43;454.83;;;14.70;97.80;;;;;;5068669;28;20274;-74
2021/11/14 11:33:54;;;;;;;464.87;433.73;;;14.80;97.50;;;;;;5072785;28;20235;-72
2021/11/14 11:36:24;;;;;;;496.27;459.17;;;14.80;97.50;;;;;;5073977;28;20183;-71
2021/11/14 11:38:51;;;;;;;420.57;394.57;;;14.70;97.40;;;;;;5073916;28;20182;-73
2021/11/14 11:41:20;;;;;;;482.40;449.73;;;14.70;97.10;;;;;;5074131;28;20172;-72
2021/11/14 11:43:50;;;;;;;495.60;460.20;;;14.70;97.10;;;;;;5073232;28;20528;-73
2021/11/14 11:46:21;;;;;;;457.57;426.80;;;14.70;96.90;;;;;;5073659;28;20202;-71
2021/11/14 11:49:04;;;;;;;505.23;465.03;;;14.70;96.60;;;;;;5073579;28;20681;-70
2021/11/14 11:51:41;;;;;;;487.87;451.87;;;14.70;96.90;;;;;;5073086;28;20182;-69
2021/11/14 11:54:14;;;;;;;508.60;468.20;;;14.80;96.60;;;;;;5073406;28;20201;-70
2021/11/14 11:56:48;;;;;;;421.00;394.60;;;14.80;96.50;;;;;;5073837;28;20681;-72
2021/11/14 11:59:16;;;;;;;509.93;469.57;;;14.80;96.10;;;;;;5073195;28;20179;-71
2021/11/14 12:01:53;;;;;;;494.87;457.97;;;14.80;96.40;;;;;;5073170;28;20641;-69
2021/11/14 12:04:31;;;;;;;506.50;468.50;;;14.80;96.20;;;;;;5073872;28;20175;-72
2021/11/14 12:07:12;;;;;;;500.70;465.03;;;14.70;96.10;;;;;;5072700;28;20173;-72
2021/11/14 12:09:50;;;;;;;504.47;466.60;;;14.80;96.00;;;;;;5073029;28;20585;-73
2021/11/14 12:12:38;;;;;;;472.93;440.70;;;14.70;95.80;;;;;;5061405;28;20552;-74
2021/11/14 12:15:16;;;;;;;485.80;451.33;;;14.80;95.80;;;;;;5071688;28;20208;-74
2021/11/14 12:17:55;;;;;;;480.60;447.30;;;14.80;95.60;;;;;;5066492;28;20295;-70
2021/11/14 12:20:27;;;;;;;486.27;453.23;;;14.80;95.90;;;;;;5073295;28;20188;-74